sensor_id;sensor_type;location;lat;lon;timestamp;pressure;altitude;pressure_sealevel;temperature;humidity
54918;BME280;40818;50.562;7.454;2022-12-15T09:26:30;96960.91;;;-8.48;100.00
54918;BME280;40818;50.562;7.454;2022-12-15T09:36:34;96941.38;;;-7.97;100.00
54918;BME280;40818;50.562;7.454;2022-12-15T09:46:53;96953.94;;;-7.91;100.00
54918;BME280;40818;50.562;7.454;2022-12-15T09:57:04;96972.13;;;-7.38;100.00
54918;BME280;40818;50.562;7.454;2022-12-15T10:07:18;96974.94;;;-6.66;100.00
54918;BME280;40818;50.562;7.454;2022-12-15T10:17:26;96985.44;;;-6.19;100.00
54918;BME280;40818;50.562;7.454;2022-12-15T10:28:11;96972.63;;;-5.43;100.00
54918;BME280;40818;50.562;7.454;2022-12-15T10:38:24;96991.88;;;-4.75;100.00
54918;BME280;40818;50.562;7.454;2022-12-15T10:48:30;96976.00;;;-3.89;100.00
54918;BME280;40818;50.562;7.454;2022-12-15T10:58:45;96963.91;;;-3.00;100.00
54918;BME280;40818;50.562;7.454;2022-12-15T11:08:53;96951.41;;;-2.73;100.00
54918;BME280;40818;50.562;7.454;2022-12-15T11:19:03;96958.94;;;-2.68;99.97
54918;BME280;40818;50.562;7.454;2022-12-15T11:29:28;96936.44;;;-2.51;95.96
54918;BME280;40818;50.562;7.454;2022-12-15T11:39:45;96942.25;;;-2.46;96.24
54918;BME280;40818;50.562;7.454;2022-12-15T11:50:08;96928.81;;;-2.51;94.18
54918;BME280;40818;50.562;7.454;2022-12-15T12:00:18;96931.03;;;-2.71;92.47
54918;BME280;40818;50.562;7.454;2022-12-15T12:10:30;96905.41;;;-3.31;100.00
54918;BME280;40818;50.562;7.454;2022-12-15T12:20:40;96892.06;;;-3.05;100.00
54918;BME280;40818;50.562;7.454;2022-12-15T12:30:48;96899.59;;;-2.67;99.11
54918;BME280;40818;50.562;7.454;2022-12-15T12:40:58;96884.13;;;-1.97;97.59
54918;BME280;40818;50.562;7.454;2022-12-15T12:51:20;96859.00;;;-1.24;100.00
54918;BME280;40818;50.562;7.454;2022-12-15T13:01:27;96852.34;;;-1.28;100.00
54918;BME280;40818;50.562;7.454;2022-12-15T13:11:59;96833.72;;;-1.84;98.32
54918;BME280;40818;50.562;7.454;2022-12-15T13:22:02;96820.72;;;-2.03;100.00
54918;BME280;40818;50.562;7.454;2022-12-15T13:32:33;96802.28;;;-2.10;100.00
54918;BME280;40818;50.562;7.454;2022-12-15T13:42:38;96791.06;;;-2.32;100.00
54918;BME280;40818;50.562;7.454;2022-12-15T13:52:47;96776.41;;;-2.24;100.00
54918;BME280;40818;50.562;7.454;2022-12-15T14:03:03;96758.78;;;-2.30;100.00
54918;BME280;40818;50.562;7.454;2022-12-15T14:13:15;96765.44;;;-2.86;100.00
54918;BME280;40818;50.562;7.454;2022-12-15T14:23:22;96751.88;;;-2.85;100.00
54918;BME280;40818;50.562;7.454;2022-12-15T14:33:30;96759.28;;;-3.41;100.00
54918;BME280;40818;50.562;7.454;2022-12-15T14:43:37;96762.13;;;-3.21;100.00
54918;BME280;40818;50.562;7.454;2022-12-15T14:53:49;96752.63;;;-3.13;100.00
54918;BME280;40818;50.562;7.454;2022-12-15T15:03:58;96771.91;;;-3.05;100.00
54918;BME280;40818;50.562;7.454;2022-12-15T15:14:07;96803.59;;;-3.20;100.00
54918;BME280;40818;50.562;7.454;2022-12-15T15:24:21;96820.75;;;-3.30;100.00
54918;BME280;40818;50.562;7.454;2022-12-15T15:34:27;96837.22;;;-3.47;100.00
54918;BME280;40818;50.562;7.454;2022-12-15T15:44:31;96836.78;;;-3.64;100.00
54918;BME280;40818;50.562;7.454;2022-12-15T15:54:37;96841.41;;;-3.82;100.00
54918;BME280;40818;50.562;7.454;2022-12-15T16:04:42;96850.97;;;-3.93;100.00
54918;BME280;40818;50.562;7.454;2022-12-15T16:14:48;96846.19;;;-4.07;100.00
54918;BME280;40818;50.562;7.454;2022-12-15T16:24:52;96838.78;;;-4.18;100.00
54918;BME280;40818;50.562;7.454;2022-12-15T16:34:58;96840.91;;;-5.31;100.00
54918;BME280;40818;50.562;7.454;2022-12-15T16:45:13;96852.06;;;-5.98;100.00
54918;BME280;40818;50.562;7.454;2022-12-15T16:55:22;96875.13;;;-6.22;100.00
54918;BME280;40818;50.562;7.454;2022-12-15T17:05:30;96874.53;;;-5.78;100.00
54918;BME280;40818;50.562;7.454;2022-12-15T17:15:37;96886.97;;;-5.64;100.00
54918;BME280;40818;50.562;7.454;2022-12-15T17:25:42;96885.97;;;-5.54;100.00
54918;BME280;40818;50.562;7.454;2022-12-15T17:35:51;96875.13;;;-6.22;100.00
54918;BME280;40818;50.562;7.454;2022-12-15T17:45:55;96870.41;;;-6.49;100.00
54918;BME280;40818;50.562;7.454;2022-12-15T17:56:02;96863.53;;;-6.38;100.00
54918;BME280;40818;50.562;7.454;2022-12-15T18:06:10;96839.81;;;-6.28;100.00
54918;BME280;40818;50.562;7.454;2022-12-15T18:16:18;96849.34;;;-6.50;100.00
54918;BME280;40818;50.562;7.454;2022-12-15T18:26:22;96860.44;;;-6.62;100.00
54918;BME280;40818;50.562;7.454;2022-12-15T18:36:28;96858.03;;;-6.73;100.00
54918;BME280;40818;50.562;7.454;2022-12-15T18:46:31;96858.25;;;-6.93;100.00
54918;BME280;40818;50.562;7.454;2022-12-15T18:56:37;96860.91;;;-7.07;100.00
54918;BME280;40818;50.562;7.454;2022-12-15T19:06:42;96859.38;;;-7.23;100.00
54918;BME280;40818;50.562;7.454;2022-12-15T19:16:49;96859.38;;;-7.25;100.00
54918;BME280;40818;50.562;7.454;2022-12-15T19:27:08;96854.56;;;-7.52;100.00
54918;BME280;40818;50.562;7.454;2022-12-15T19:37:23;96852.19;;;-7.74;100.00
54918;BME280;40818;50.562;7.454;2022-12-15T19:47:27;96863.09;;;-7.69;100.00
54918;BME280;40818;50.562;7.454;2022-12-15T19:57:33;96853.91;;;-7.78;100.00
54918;BME280;40818;50.562;7.454;2022-12-15T20:07:37;96848.91;;;-7.79;100.00
54918;BME280;40818;50.562;7.454;2022-12-15T20:17:44;96852.34;;;-7.93;100.00
54918;BME280;40818;50.562;7.454;2022-12-15T20:27:48;96847.38;;;-8.05;100.00
54918;BME280;40818;50.562;7.454;2022-12-15T20:37:54;96838.19;;;-8.12;100.00
54918;BME280;40818;50.562;7.454;2022-12-15T20:47:57;96842.38;;;-8.17;100.00
54918;BME280;40818;50.562;7.454;2022-12-15T20:58:04;96834.91;;;-8.25;100.00
54918;BME280;40818;50.562;7.454;2022-12-15T21:08:11;96838.31;;;-8.37;100.00
54918;BME280;40818;50.562;7.454;2022-12-15T21:18:20;96845.03;;;-8.42;100.00
54918;BME280;40818;50.562;7.454;2022-12-15T21:28:24;96842.53;;;-8.39;100.00
54918;BME280;40818;50.562;7.454;2022-12-15T21:38:35;96838.31;;;-8.40;100.00
54918;BME280;40818;50.562;7.454;2022-12-15T21:48:39;96850.97;;;-8.45;100.00
54918;BME280;40818;50.562;7.454;2022-12-15T21:58:58;96854.22;;;-8.29;100.00
54918;BME280;40818;50.562;7.454;2022-12-15T22:09:01;96844.81;;;-8.02;100.00
54918;BME280;40818;50.562;7.454;2022-12-15T22:19:10;96851.56;;;-8.04;100.00
54918;BME280;40818;50.562;7.454;2022-12-15T22:29:16;96856.63;;;-8.07;100.00
54918;BME280;40818;50.562;7.454;2022-12-15T22:39:22;96868.34;;;-8.06;100.00
54918;BME280;40818;50.562;7.454;2022-12-15T22:49:29;96867.47;;;-8.00;100.00
54918;BME280;40818;50.562;7.454;2022-12-15T22:59:39;96878.31;;;-7.83;100.00
54918;BME280;40818;50.562;7.454;2022-12-15T23:09:43;96879.19;;;-7.90;100.00
54918;BME280;40818;50.562;7.454;2022-12-15T23:19:49;96879.13;;;-7.78;100.00
54918;BME280;40818;50.562;7.454;2022-12-15T23:29:53;96887.47;;;-7.74;100.00
54918;BME280;40818;50.562;7.454;2022-12-15T23:39:59;96884.16;;;-7.81;100.00
54918;BME280;40818;50.562;7.454;2022-12-15T23:50:03;96879.97;;;-7.85;100.00
